Time;durP1;ratioP1;P1;durP2;ratioP2;P2;SDS_P1;SDS_P2;PMS_P1;PMS_P2;Temp;Humidity;BMP_temperature;BMP_pressure;BME280_temperature;BME280_humidity;BME280_pressure;Samples;Min_cycle;Max_cycle;Signal;HPM_P1;HPM_P2
2022/12/16 00:02:19;;;;;;;28.10;18.05;;;18.80;47.70;;;;;;5032073;28;20048;-74
2022/12/16 00:04:45;;;;;;;23.60;17.38;;;18.80;47.10;;;;;;5025276;28;20366;-74
2022/12/16 00:07:11;;;;;;;26.52;15.30;;;18.90;47.20;;;;;;5013529;28;20470;-74
2022/12/16 00:09:37;;;;;;;23.35;15.27;;;18.90;47.10;;;;;;5011650;28;20036;-75
2022/12/16 00:12:03;;;;;;;22.10;14.32;;;19.00;47.20;;;;;;5015839;28;20030;-74
2022/12/16 00:14:28;;;;;;;24.83;14.55;;;19.00;47.30;;;;;;5030488;28;20121;-74
2022/12/16 00:16:54;;;;;;;21.52;13.65;;;19.00;47.40;;;;;;5024029;28;20037;-75
2022/12/16 00:19:20;;;;;;;21.25;14.10;;;19.00;47.40;;;;;;5012513;28;20455;-74
2022/12/16 00:21:45;;;;;;;20.60;13.63;;;19.00;47.70;;;;;;5012943;28;20512;-75
2022/12/16 00:24:11;;;;;;;19.98;13.85;;;19.00;47.80;;;;;;5011598;28;20029;-74
2022/12/16 00:26:37;;;;;;;21.13;13.48;;;19.00;47.90;;;;;;5019245;28;20025;-74
2022/12/16 00:29:04;;;;;;;22.75;12.77;;;19.00;48.00;;;;;;5030969;28;20033;-74
2022/12/16 00:31:30;;;;;;;20.38;13.63;;;19.00;48.10;;;;;;5031482;28;20395;-74
2022/12/16 00:33:57;;;;;;;19.30;12.63;;;19.00;48.10;;;;;;5031388;28;20473;-74
2022/12/16 00:36:23;;;;;;;20.50;12.57;;;19.00;48.20;;;;;;5012741;28;20040;-74
2022/12/16 00:38:51;;;;;;;19.02;11.98;;;19.00;48.40;;;;;;5017575;28;20017;-74
2022/12/16 00:41:17;;;;;;;21.63;13.45;;;19.00;48.40;;;;;;5020987;28;20386;-75
2022/12/16 00:43:42;;;;;;;29.45;15.00;;;18.90;48.50;;;;;;5030962;28;20037;-76
2022/12/16 00:46:08;;;;;;;24.90;14.27;;;18.90;48.50;;;;;;5030589;28;20032;-76
2022/12/16 00:48:34;;;;;;;28.50;14.25;;;18.90;48.30;;;;;;5030638;28;20485;-75
2022/12/16 00:51:00;;;;;;;23.67;13.52;;;19.00;48.50;;;;;;5031513;28;20120;-74
2022/12/16 00:53:26;;;;;;;22.83;13.80;;;19.00;48.90;;;;;;5030344;28;20040;-74
2022/12/16 00:56:04;;;;;;;21.23;14.18;;;19.10;49.80;;;;;;5029840;28;20033;-74
2022/12/16 00:58:29;;;;;;;26.17;15.35;;;19.10;51.10;;;;;;5028971;28;20037;-74
2022/12/16 01:00:55;;;;;;;28.20;15.18;;;19.10;51.40;;;;;;5032147;28;20022;-74
2022/12/16 01:03:21;;;;;;;27.38;14.88;;;19.20;51.90;;;;;;5032347;28;20025;-74
2022/12/16 01:05:47;;;;;;;24.67;14.70;;;19.20;51.90;;;;;;5034084;28;20029;-74
2022/12/16 01:08:12;;;;;;;30.65;15.45;;;19.20;52.70;;;;;;5044841;28;20113;-74
2022/12/16 01:10:38;;;;;;;25.08;15.07;;;19.20;54.00;;;;;;5031129;28;20026;-74
2022/12/16 01:13:04;;;;;;;22.27;14.43;;;19.20;52.60;;;;;;5027108;28;20029;-74
2022/12/16 01:15:30;;;;;;;21.17;13.25;;;19.30;52.50;;;;;;5029974;28;20025;-73
2022/12/16 01:17:55;;;;;;;18.60;12.70;;;19.30;51.90;;;;;;5028669;28;20029;-74
2022/12/16 01:20:21;;;;;;;21.65;13.35;;;19.30;52.00;;;;;;5028238;28;20018;-75
2022/12/16 01:22:47;;;;;;;20.83;12.43;;;19.30;52.00;;;;;;5028975;28;20030;-75
2022/12/16 01:25:13;;;;;;;27.05;13.70;;;19.30;52.10;;;;;;5028429;28;20061;-75
2022/12/16 01:27:39;;;;;;;19.13;12.15;;;19.30;52.20;;;;;;5030046;28;20025;-75
2022/12/16 01:30:05;;;;;;;22.35;12.80;;;19.30;53.00;;;;;;5028266;28;20041;-75
2022/12/16 01:32:31;;;;;;;23.00;12.73;;;19.30;52.50;;;;;;5029016;28;20108;-78
2022/12/16 01:34:57;;;;;;;23.38;12.77;;;19.30;52.50;;;;;;5027203;28;20036;-76
2022/12/16 01:37:23;;;;;;;23.00;13.32;;;19.30;52.50;;;;;;5029856;28;20417;-74
2022/12/16 01:39:49;;;;;;;19.38;11.95;;;19.30;52.40;;;;;;5028647;28;20029;-74
2022/12/16 01:42:18;;;;;;;21.35;13.02;;;19.30;52.60;;;;;;5029653;28;20078;-74
2022/12/16 01:44:47;;;;;;;18.63;12.02;;;19.30;52.70;;;;;;5026144;28;20492;-74
2022/12/16 01:47:27;;;;;;;20.63;12.13;;;19.30;52.60;;;;;;5028554;28;20029;-74
2022/12/16 01:50:06;;;;;;;22.42;11.80;;;19.30;53.10;;;;;;5027079;28;20176;-74
2022/12/16 01:52:40;;;;;;;21.58;12.75;;;19.30;53.10;;;;;;5029002;28;20067;-74
2022/12/16 01:55:11;;;;;;;18.33;11.93;;;19.30;53.40;;;;;;5028682;28;20423;-74
2022/12/16 01:57:45;;;;;;;19.63;12.43;;;19.30;53.40;;;;;;5028635;28;20029;-73
2022/12/16 02:00:12;;;;;;;20.83;12.15;;;19.30;53.90;;;;;;5031798;28;20377;-76
2022/12/16 02:02:45;;;;;;;23.40;15.02;;;19.30;54.90;;;;;;5033130;28;20708;-73
2022/12/16 02:05:21;;;;;;;38.75;26.58;;;19.30;53.10;;;;;;5031602;28;20032;-72
2022/12/16 02:08:01;;;;;;;32.55;19.42;;;19.20;50.60;;;;;;5031219;28;20120;-74
2022/12/16 02:10:41;;;;;;;24.90;16.15;;;19.10;53.80;;;;;;5030207;28;20029;-75
2022/12/16 02:13:21;;;;;;;20.02;14.93;;;19.10;53.70;;;;;;5033566;28;20397;-75
2022/12/16 02:16:04;;;;;;;23.17;15.10;;;19.00;55.00;;;;;;5034210;28;20026;-75
2022/12/16 02:18:54;;;;;;;24.63;14.75;;;19.10;55.70;;;;;;5032798;28;20025;-75
2022/12/16 02:21:40;;;;;;;20.63;14.90;;;19.00;56.10;;;;;;5024855;28;20033;-75
2022/12/16 02:24:18;;;;;;;25.55;14.75;;;19.10;56.30;;;;;;5032080;28;20516;-76
2022/12/16 02:27:16;;;;;;;21.95;14.98;;;19.10;56.40;;;;;;5034705;28;20029;-75
2022/12/16 02:30:05;;;;;;;24.15;14.63;;;19.10;56.50;;;;;;5032949;28;20041;-76
2022/12/16 02:33:09;;;;;;;21.77;14.35;;;19.10;56.10;;;;;;5030728;28;20124;-75
2022/12/16 02:35:40;;;;;;;27.00;14.07;;;19.10;56.00;;;;;;5031142;28;20405;-75
2022/12/16 02:38:31;;;;;;;24.85;14.20;;;19.10;55.70;;;;;;5033545;28;20033;-76
2022/12/16 02:41:07;;;;;;;21.65;13.98;;;19.10;56.00;;;;;;5031004;28;20362;-75
2022/12/16 02:43:47;;;;;;;22.40;13.52;;;19.10;56.20;;;;;;5032771;28;20026;-75
2022/12/16 02:46:13;;;;;;;;;;;19.10;56.30;;;;;;5033012;28;20047;-75
2022/12/16 02:48:38;;;;;;;25.33;13.75;;;19.00;56.30;;;;;;5034325;28;20312;-75
2022/12/16 02:51:04;;;;;;;19.58;13.20;;;19.00;56.40;;;;;;5034388;28;20099;-75
2022/12/16 02:53:33;;;;;;;22.70;13.32;;;19.00;57.10;;;;;;5033116;28;20029;-75
2022/12/16 02:56:17;;;;;;;28.70;13.85;;;19.00;56.70;;;;;;5029880;28;20040;-75
2022/12/16 02:59:08;;;;;;;21.77;12.63;;;19.00;56.80;;;;;;5031033;28;20405;-75
2022/12/16 03:01:53;;;;;;;23.13;12.88;;;19.00;57.10;;;;;;5031857;28;20030;-73
2022/12/16 03:04:39;;;;;;;24.73;13.02;;;19.00;57.10;;;;;;5031655;28;20473;-74
2022/12/16 03:07:10;;;;;;;22.90;12.80;;;18.90;56.80;;;;;;5033455;28;20481;-75
2022/12/16 03:09:38;;;;;;;19.85;12.52;;;18.90;56.90;;;;;;5030394;28;20020;-75
2022/12/16 03:12:09;;;;;;;22.40;12.85;;;18.90;56.90;;;;;;5031889;28;20120;-75
2022/12/16 03:14:39;;;;;;;19.75;12.80;;;18.90;57.00;;;;;;5032532;28;20022;-75
2022/12/16 03:17:07;;;;;;;23.35;12.45;;;18.90;56.80;;;;;;5031956;28;20428;-75
2022/12/16 03:19:34;;;;;;;19.98;12.98;;;18.90;57.30;;;;;;5032352;28;20026;-75
2022/12/16 03:22:03;;;;;;;18.63;11.88;;;18.90;57.20;;;;;;5032790;28;20022;-75
2022/12/16 03:24:29;;;;;;;17.08;11.07;;;18.90;57.20;;;;;;5030641;28;20481;-75
2022/12/16 03:27:01;;;;;;;19.35;12.32;;;18.90;56.80;;;;;;5033361;28;20358;-75
2022/12/16 03:29:44;;;;;;;22.00;12.90;;;18.90;57.30;;;;;;5032150;28;20025;-75
2022/12/16 03:32:22;;;;;;;20.20;12.35;;;19.00;58.00;;;;;;5032367;28;20048;-75
2022/12/16 03:34:55;;;;;;;19.30;11.88;;;19.00;58.00;;;;;;5029985;28;20030;-76
2022/12/16 03:37:26;;;;;;;17.60;11.63;;;19.00;58.30;;;;;;5031136;28;20028;-75
2022/12/16 03:39:57;;;;;;;18.90;12.15;;;19.00;58.20;;;;;;5030510;28;20021;-75
2022/12/16 03:42:23;;;;;;;18.90;11.93;;;19.00;58.50;;;;;;5032263;28;20424;-75
2022/12/16 03:44:49;;;;;;;19.20;11.48;;;19.00;58.30;;;;;;5030446;28;20031;-75
2022/12/16 03:47:15;;;;;;;19.33;11.27;;;19.00;58.20;;;;;;5032696;28;20068;-75
2022/12/16 03:49:41;;;;;;;20.23;12.35;;;19.00;58.20;;;;;;5030029;28;20029;-75
2022/12/16 03:52:07;;;;;;;19.13;12.32;;;19.00;58.30;;;;;;5030187;28;20489;-75
2022/12/16 03:54:33;;;;;;;18.30;11.68;;;19.00;58.40;;;;;;5032754;28;20029;-75
2022/12/16 03:56:59;;;;;;;19.88;11.27;;;19.00;58.20;;;;;;5033633;28;20027;-75
2022/12/16 03:59:25;;;;;;;16.92;10.68;;;19.00;58.40;;;;;;5031505;28;20380;-75
2022/12/16 04:01:50;;;;;;;19.90;11.50;;;19.00;58.50;;;;;;5029676;28;20026;-74
2022/12/16 04:04:17;;;;;;;18.58;11.00;;;19.00;58.80;;;;;;5031080;28;20025;-75
2022/12/16 04:06:43;;;;;;;16.90;11.15;;;19.00;59.10;;;;;;5031488;28;20139;-75
2022/12/16 04:09:09;;;;;;;19.75;11.18;;;19.00;58.80;;;;;;5029959;28;20033;-75
2022/12/16 04:25:31;;;;;;;17.63;11.30;;;19.00;59.40;;;;;;5029693;28;20041;-75
2022/12/16 04:27:57;;;;;;;18.05;10.85;;;19.00;59.10;;;;;;5031652;28;20485;-76
2022/12/16 04:30:26;;;;;;;18.45;10.93;;;19.00;59.30;;;;;;5029684;28;20044;-75
